Time;durP1;ratioP1;P1;durP2;ratioP2;P2;SDS_P1;SDS_P2;PMS_P1;PMS_P2;Temp;Humidity;BMP_temperature;BMP_pressure;BME280_temperature;BME280_humidity;BME280_pressure;Samples;Min_cycle;Max_cycle;Signal;HPM_P1;HPM_P2
2022/09/18 00:00:46;;;;;;;10.43;3.88;;;;;;;;;;5060929;28;20473;-76
2022/09/18 00:03:12;;;;;;;14.00;3.80;;;;;;;;;;5063576;28;20012;-76
2022/09/18 00:05:39;;;;;;;14.55;3.80;;;;;;;;;;5060336;28;20095;-75
2022/09/18 00:08:06;;;;;;;15.63;4.22;;;;;;;;;;5063528;28;20027;-75
2022/09/18 00:10:33;;;;;;;14.35;4.32;;;;;;;;;;5062058;28;20919;-76
2022/09/18 00:12:59;;;;;;;13.32;3.70;;;;;;;;;;5062665;28;20568;-76
2022/09/18 00:15:25;;;;;;;13.65;4.18;;;;;;;;;;5063052;28;20024;-76
2022/09/18 00:17:51;;;;;;;12.20;3.45;;;;;;;;;;5062737;28;20027;-76
2022/09/18 00:20:18;;;;;;;19.00;4.20;;;;;;;;;;5066050;28;20055;-76
2022/09/18 00:22:45;;;;;;;12.13;3.28;;;;;;;;;;5060221;28;20436;-76
2022/09/18 00:25:12;;;;;;;13.43;4.00;;;;;;;;;;5060681;28;20036;-75
2022/09/18 00:27:38;;;;;;;13.02;3.55;;;;;;;;;;5064071;28;20024;-76
2022/09/18 00:30:04;;;;;;;9.05;3.20;;;;;;;;;;5056246;28;20024;-76
2022/09/18 00:32:30;;;;;;;12.60;3.20;;;;;;;;;;5056108;28;20028;-76
2022/09/18 00:34:56;;;;;;;13.55;3.67;;;;;;;;;;5056479;28;20356;-75
2022/09/18 00:37:23;;;;;;;10.77;3.05;;;;;;;;;;5058053;28;20130;-75
2022/09/18 00:39:49;;;;;;;15.10;3.72;;;;;;;;;;5055540;28;20094;-75
2022/09/18 00:42:19;;;;;;;8.18;3.17;;;;;;;;;;5057116;28;20155;-74
2022/09/18 00:44:46;;;;;;;16.58;3.83;;;;;;;;;;5055015;28;20452;-75
2022/09/18 00:47:23;;;;;;;13.55;3.10;;;;;;;;;;5056205;28;20024;-75
2022/09/18 00:49:52;;;;;;;10.38;3.92;;;;;;;;;;5056012;28;20057;-74
2022/09/18 00:52:20;;;;;;;16.42;3.50;;;;;;;;;;5058387;28;20592;-76
2022/09/18 00:54:52;;;;;;;13.25;3.25;;;;;;;;;;5054655;28;20032;-76
2022/09/18 00:57:20;;;;;;;13.45;3.42;;;;;;;;;;5057231;28;20540;-74
2022/09/18 00:59:48;;;;;;;11.60;3.20;;;;;;;;;;5054537;28;20037;-76
2022/09/18 01:02:14;;;;;;;10.18;3.30;;;;;;;;;;5055760;28;20389;-76
2022/09/18 01:04:40;;;;;;;12.48;3.13;;;;;;;;;;5055512;28;20032;-75
2022/09/18 01:07:06;;;;;;;10.18;3.17;;;;;;;;;;5053794;28;20027;-74
2022/09/18 01:09:51;;;;;;;10.48;3.28;;;;;;;;;;5058584;28;20238;-75
2022/09/18 01:12:25;;;;;;;15.02;3.00;;;;;;;;;;5054061;28;20554;-75
2022/09/18 01:14:57;;;;;;;10.70;2.75;;;;;;;;;;5059002;28;20024;-76
2022/09/18 01:17:26;;;;;;;9.95;2.85;;;;;;;;;;5068749;28;20059;-76
2022/09/18 01:20:00;;;;;;;14.27;3.55;;;;;;;;;;5054698;28;20091;-75
2022/09/18 01:22:33;;;;;;;12.40;2.58;;;;;;;;;;5055894;28;20506;-76
2022/09/18 01:25:08;;;;;;;10.32;3.00;;;;;;;;;;5052945;28;20090;-75
2022/09/18 01:27:40;;;;;;;10.00;2.60;;;;;;;;;;5056352;28;20013;-75
2022/09/18 01:30:08;;;;;;;12.35;3.15;;;;;;;;;;5054718;28;20044;-75
2022/09/18 01:32:43;;;;;;;13.13;3.10;;;;;;;;;;5055572;28;20012;-75
2022/09/18 01:35:16;;;;;;;10.65;2.55;;;;;;;;;;5070303;28;20040;-72
2022/09/18 01:37:57;;;;;;;9.73;2.88;;;;;;;;;;5055515;28;20056;-75
2022/09/18 01:40:25;;;;;;;11.45;2.97;;;;;;;;;;5055609;28;20500;-76
2022/09/18 01:42:52;;;;;;;8.50;2.90;;;;;;;;;;5054413;28;20304;-75
2022/09/18 01:45:22;;;;;;;6.70;2.55;;;;;;;;;;5054705;28;20051;-75
2022/09/18 01:48:07;;;;;;;9.18;3.17;;;;;;;;;;5054525;28;20017;-75
2022/09/18 01:50:36;;;;;;;13.68;3.03;;;;;;;;;;5055089;28;20409;-76
2022/09/18 01:53:22;;;;;;;8.80;3.28;;;;;;;;;;5055071;28;20369;-75
2022/09/18 01:55:51;;;;;;;11.00;2.90;;;;;;;;;;5055925;28;20020;-75
2022/09/18 01:58:20;;;;;;;9.85;3.05;;;;;;;;;;5057065;28;20032;-76
2022/09/18 02:00:49;;;;;;;6.20;2.45;;;;;;;;;;5053704;28;20103;-76
2022/09/18 02:03:18;;;;;;;10.98;3.08;;;;;;;;;;5056179;28;20025;-76
2022/09/18 02:05:50;;;;;;;5.82;1.88;;;;;;;;;;5052922;28;20057;-76
2022/09/18 02:08:20;;;;;;;13.32;3.03;;;;;;;;;;5055906;28;20050;-76
2022/09/18 02:10:50;;;;;;;6.43;2.17;;;;;;;;;;5052815;28;20025;-76
2022/09/18 02:13:18;;;;;;;9.35;3.20;;;;;;;;;;5052751;28;20017;-76
2022/09/18 02:15:45;;;;;;;9.95;3.00;;;;;;;;;;5057058;28;20032;-76
2022/09/18 02:18:15;;;;;;;8.70;3.25;;;;;;;;;;5055349;28;20025;-76
2022/09/18 02:20:44;;;;;;;9.18;2.55;;;;;;;;;;5052979;28;20428;-76
2022/09/18 02:23:10;;;;;;;7.85;2.45;;;;;;;;;;5054252;28;20032;-74
2022/09/18 02:25:41;;;;;;;9.98;2.58;;;;;;;;;;5053520;28;20036;-76
2022/09/18 02:28:09;;;;;;;7.93;2.47;;;;;;;;;;5055033;28;20025;-75
2022/09/18 02:30:38;;;;;;;8.40;2.22;;;;;;;;;;5061787;28;20017;-76
2022/09/18 02:33:07;;;;;;;8.70;2.95;;;;;;;;;;5055844;28;20481;-76
2022/09/18 02:35:39;;;;;;;7.85;2.05;;;;;;;;;;5059334;28;20443;-75
2022/09/18 02:38:17;;;;;;;7.18;2.50;;;;;;;;;;5055675;28;20032;-75
2022/09/18 02:40:54;;;;;;;11.85;2.30;;;;;;;;;;5058457;28;20033;-76
2022/09/18 02:43:42;;;;;;;7.93;2.05;;;;;;;;;;5057184;28;20355;-76
2022/09/18 02:46:27;;;;;;;11.02;2.63;;;;;;;;;;5055785;28;20432;-76
2022/09/18 02:49:08;;;;;;;9.55;2.05;;;;;;;;;;5061106;28;20024;-76
2022/09/18 02:51:34;;;;;;;;;;;;;;;;;;5060893;28;20100;-75
2022/09/18 02:54:20;;;;;;;4.90;2.10;;;;;;;;;;5061470;28;19962;-76
2022/09/18 02:56:50;;;;;;;8.40;2.80;;;;;;;;;;5060286;28;20547;-76
2022/09/18 02:59:20;;;;;;;5.82;1.98;;;;;;;;;;5061596;28;20388;-76
2022/09/18 03:01:47;;;;;;;12.70;2.55;;;;;;;;;;5059135;28;20503;-76
2022/09/18 03:04:14;;;;;;;9.07;2.60;;;;;;;;;;5063833;28;20465;-75
2022/09/18 03:06:41;;;;;;;6.82;1.95;;;;;;;;;;5058569;28;20028;-76
2022/09/18 03:09:07;;;;;;;9.63;2.25;;;;;;;;;;5062002;28;20049;-75
2022/09/18 03:11:33;;;;;;;9.18;2.10;;;;;;;;;;5056784;28;20025;-75
2022/09/18 03:13:59;;;;;;;9.50;2.15;;;;;;;;;;5057415;28;20260;-75
2022/09/18 03:16:25;;;;;;;7.57;2.53;;;;;;;;;;5056592;28;20024;-75
2022/09/18 03:18:51;;;;;;;8.90;2.10;;;;;;;;;;5048206;28;20028;-75
2022/09/18 03:21:18;;;;;;;6.32;1.80;;;;;;;;;;5054476;28;20488;-76
2022/09/18 03:23:44;;;;;;;5.10;1.70;;;;;;;;;;5053220;28;20494;-75
2022/09/18 03:26:10;;;;;;;5.80;2.30;;;;;;;;;;5053921;28;20453;-75
2022/09/18 03:28:36;;;;;;;4.75;1.80;;;;;;;;;;5056149;28;20025;-75
2022/09/18 03:31:02;;;;;;;8.23;2.13;;;;;;;;;;5054013;28;20048;-76
2022/09/18 03:33:28;;;;;;;6.43;1.85;;;;;;;;;;5057466;28;20076;-76
2022/09/18 03:35:54;;;;;;;7.10;2.47;;;;;;;;;;5053084;28;20036;-75
2022/09/18 03:38:21;;;;;;;5.13;2.30;;;;;;;;;;5055311;28;20031;-75
2022/09/18 03:40:47;;;;;;;7.57;2.00;;;;;;;;;;5054427;28;20028;-76
2022/09/18 03:43:13;;;;;;;7.43;1.83;;;;;;;;;;5069631;28;20028;-75
2022/09/18 03:45:39;;;;;;;7.40;1.70;;;;;;;;;;5059712;28;20057;-75
2022/09/18 03:48:06;;;;;;;9.88;1.85;;;;;;;;;;5052931;28;20033;-75
2022/09/18 03:50:32;;;;;;;10.63;2.10;;;;;;;;;;5057541;28;20743;-75
2022/09/18 03:52:58;;;;;;;9.13;2.08;;;;;;;;;;5052870;28;20118;-76
2022/09/18 03:55:24;;;;;;;7.57;1.77;;;;;;;;;;5055855;28;20024;-76
2022/09/18 03:57:50;;;;;;;11.65;2.03;;;;;;;;;;5053521;28;20017;-76
2022/09/18 04:00:18;;;;;;;6.55;2.55;;;;;;;;;;5053292;28;20056;-75
2022/09/18 04:02:45;;;;;;;7.25;1.60;;;;;;;;;;5057283;28;20028;-76
2022/09/18 04:05:11;;;;;;;6.00;1.63;;;;;;;;;;5052725;28;20396;-75
2022/09/18 04:07:37;;;;;;;6.07;1.98;;;;;;;;;;5061721;28;20433;-75
2022/09/18 04:10:04;;;;;;;8.95;2.10;;;;;;;;;;5058899;28;20099;-75
2022/09/18 04:12:30;;;;;;;9.95;2.42;;;;;;;;;;5059769;28;20436;-75
2022/09/18 04:14:56;;;;;;;9.23;1.88;;;;;;;;;;5059275;28;20025;-73
2022/09/18 04:17:22;;;;;;;7.28;1.80;;;;;;;;;;5055438;28;20028;-74
2022/09/18 04:19:48;;;;;;;8.20;1.60;;;;;;;;;;5062411;28;20040;-74
2022/09/18 04:22:14;;;;;;;8.75;1.75;;;;;;;;;;5058606;28;20013;-74
2022/09/18 04:24:41;;;;;;;6.95;2.20;;;;;;;;;;5055172;28;20029;-73
2022/09/18 04:27:07;;;;;;;4.63;1.63;;;;;;;;;;5053870;28;20031;-74
2022/09/18 04:29:33;;;;;;;8.50;2.20;;;;;;;;;;5052916;28;20025;-74
2022/09/18 04:31:59;;;;;;;6.45;1.40;;;;;;;;;;5057315;28;20548;-73
2022/09/18 04:34:25;;;;;;;8.63;1.70;;;;;;;;;;5048586;28;20099;-74
2022/09/18 04:36:52;;;;;;;8.45;1.67;;;;;;;;;;5052649;28;20392;-73
2022/09/18 04:39:18;;;;;;;12.02;2.20;;;;;;;;;;5048600;28;20039;-73
2022/09/18 04:41:44;;;;;;;10.55;2.50;;;;;;;;;;5051132;28;20639;-73
2022/09/18 04:44:11;;;;;;;6.43;2.00;;;;;;;;;;5051433;28;20039;-73
2022/09/18 04:46:37;;;;;;;9.02;1.67;;;;;;;;;;5052491;28;20080;-74
2022/09/18 04:49:03;;;;;;;4.57;1.35;;;;;;;;;;5056164;28;20029;-74
2022/09/18 04:51:29;;;;;;;6.22;1.88;;;;;;;;;;5051003;28;20024;-74
2022/09/18 04:53:55;;;;;;;7.68;1.95;;;;;;;;;;5056159;28;20016;-73
2022/09/18 04:56:22;;;;;;;6.90;2.00;;;;;;;;;;5069576;28;20397;-74
2022/09/18 04:58:48;;;;;;;3.80;1.40;;;;;;;;;;5054383;28;20027;-74
2022/09/18 05:01:14;;;;;;;7.63;1.60;;;;;;;;;;5054643;28;20543;-73
2022/09/18 05:03:40;;;;;;;8.70;1.70;;;;;;;;;;5052700;28;20052;-73
2022/09/18 05:06:06;;;;;;;10.30;1.77;;;;;;;;;;5055558;28;20028;-73
2022/09/18 05:08:33;;;;;;;8.35;2.10;;;;;;;;;;5051207;28;20406;-74
2022/09/18 05:11:00;;;;;;;9.65;1.60;;;;;;;;;;5055678;28;20480;-74
2022/09/18 05:13:27;;;;;;;9.02;1.48;;;;;;;;;;5051022;28;20064;-73
2022/09/18 05:15:56;;;;;;;4.60;1.20;;;;;;;;;;5054899;28;20032;-73
2022/09/18 05:18:22;;;;;;;5.85;1.38;;;;;;;;;;5052931;28;20400;-74
2022/09/18 05:20:48;;;;;;;6.07;1.70;;;;;;;;;;5052796;28;20290;-73
2022/09/18 05:23:15;;;;;;;6.72;1.58;;;;;;;;;;5053339;28;20020;-74
2022/09/18 05:25:42;;;;;;;5.20;1.15;;;;;;;;;;5050683;28;20025;-73
2022/09/18 05:28:10;;;;;;;5.18;1.10;;;;;;;;;;5053364;28;20056;-74
2022/09/18 05:30:36;;;;;;;3.45;1.00;;;;;;;;;;5054335;28;20017;-73
2022/09/18 05:33:04;;;;;;;4.40;1.38;;;;;;;;;;5051925;28;20039;-73
2022/09/18 05:35:31;;;;;;;3.80;1.45;;;;;;;;;;5054715;28;20174;-73
2022/09/18 05:37:57;;;;;;;3.90;1.17;;;;;;;;;;5050720;28;20021;-74
2022/09/18 05:40:25;;;;;;;5.00;1.63;;;;;;;;;;5055365;28;20059;-73
2022/09/18 05:42:52;;;;;;;5.80;1.42;;;;;;;;;;5050040;28;20096;-73
2022/09/18 05:45:18;;;;;;;7.63;1.52;;;;;;;;;;5054644;28;20020;-73
2022/09/18 05:47:52;;;;;;;4.78;1.10;;;;;;;;;;5055305;28;20025;-73
2022/09/18 05:50:19;;;;;;;10.55;1.40;;;;;;;;;;5053122;28;20370;-73
2022/09/18 05:52:45;;;;;;;3.15;1.30;;;;;;;;;;5054976;28;20535;-73
2022/09/18 05:55:11;;;;;;;8.73;1.88;;;;;;;;;;5051899;28;20429;-73
2022/09/18 05:57:37;;;;;;;5.43;1.52;;;;;;;;;;5055832;28;20576;-73
2022/09/18 06:00:03;;;;;;;3.78;1.10;;;;;;;;;;5063116;28;20064;-74
2022/09/18 06:02:30;;;;;;;4.00;1.38;;;;;;;;;;5050819;28;20039;-73
2022/09/18 06:04:56;;;;;;;3.38;0.85;;;;;;;;;;5047273;28;20021;-73
2022/09/18 06:07:22;;;;;;;2.47;1.05;;;;;;;;;;5051772;28;20025;-74
2022/09/18 06:09:48;;;;;;;3.28;1.10;;;;;;;;;;5051505;28;20083;-73
2022/09/18 06:12:14;;;;;;;4.57;1.13;;;;;;;;;;5051725;28;20021;-74
2022/09/18 06:14:40;;;;;;;6.25;1.27;;;;;;;;;;5055079;28;20033;-74
2022/09/18 06:17:06;;;;;;;14.35;2.38;;;;;;;;;;5049284;28;20413;-74
2022/09/18 06:19:33;;;;;;;5.97;2.90;;;;;;;;;;5054507;28;20070;-74
2022/09/18 06:21:59;;;;;;;3.92;1.30;;;;;;;;;;5049968;28;20032;-74
2022/09/18 06:24:26;;;;;;;5.13;1.55;;;;;;;;;;5054802;28;20067;-73
2022/09/18 06:26:52;;;;;;;4.35;1.40;;;;;;;;;;5054842;28;20093;-74
2022/09/18 06:29:18;;;;;;;5.03;1.23;;;;;;;;;;5050229;28;20116;-74
2022/09/18 06:31:44;;;;;;;12.30;1.35;;;;;;;;;;5053925;28;20043;-74
2022/09/18 06:34:10;;;;;;;4.30;0.90;;;;;;;;;;5050989;28;20033;-74
2022/09/18 06:36:36;;;;;;;6.15;1.10;;;;;;;;;;5052012;28;20074;-73
2022/09/18 06:39:02;;;;;;;4.32;1.40;;;;;;;;;;5051861;28;20029;-73
2022/09/18 06:41:28;;;;;;;3.85;1.20;;;;;;;;;;5050607;28;20675;-74
2022/09/18 06:43:55;;;;;;;3.63;1.10;;;;;;;;;;5054909;28;20278;-74
2022/09/18 06:46:22;;;;;;;1.35;0.90;;;;;;;;;;5054812;28;20075;-73
2022/09/18 06:48:49;;;;;;;5.63;1.33;;;;;;;;;;5059593;28;20031;-73
2022/09/18 06:51:15;;;;;;;3.53;0.85;;;;;;;;;;5057982;28;20544;-73
2022/09/18 06:53:41;;;;;;;3.47;0.85;;;;;;;;;;5062622;28;20384;-74
2022/09/18 06:56:07;;;;;;;4.47;1.10;;;;;;;;;;5056743;28;20091;-74
2022/09/18 06:58:33;;;;;;;4.55;1.00;;;;;;;;;;5053678;28;20378;-73
2022/09/18 07:01:00;;;;;;;2.92;0.90;;;;;;;;;;5056616;28;20028;-74
2022/09/18 07:03:26;;;;;;;4.68;1.02;;;;;;;;;;5053096;28;20013;-73
2022/09/18 07:05:52;;;;;;;5.13;1.05;;;;;;;;;;5056722;28;20114;-73
2022/09/18 07:08:18;;;;;;;3.28;0.82;;;;;;;;;;5054237;28;20388;-73
2022/09/18 07:10:44;;;;;;;5.15;1.10;;;;;;;;;;5055642;28;20032;-73
2022/09/18 07:13:10;;;;;;;3.53;0.95;;;;;;;;;;5055100;28;20489;-73
2022/09/18 07:15:36;;;;;;;2.20;0.68;;;;;;;;;;5055167;28;20459;-73
2022/09/18 07:18:03;;;;;;;8.40;1.20;;;;;;;;;;5059492;28;20162;-75
2022/09/18 07:20:30;;;;;;;8.27;1.17;;;;;;;;;;5056792;28;20044;-76
2022/09/18 07:22:57;;;;;;;7.00;1.25;;;;;;;;;;5057391;28;20016;-78
2022/09/18 07:25:24;;;;;;;4.57;1.13;;;;;;;;;;5056657;28;20052;-77
2022/09/18 07:27:50;;;;;;;2.67;1.00;;;;;;;;;;5048867;28;20106;-77
2022/09/18 07:30:17;;;;;;;3.28;1.10;;;;;;;;;;5054203;28;20166;-77
2022/09/18 07:32:43;;;;;;;2.92;0.75;;;;;;;;;;5049288;28;20059;-76
2022/09/18 07:35:09;;;;;;;2.50;1.10;;;;;;;;;;5053308;28;20542;-78
2022/09/18 07:37:36;;;;;;;3.67;1.08;;;;;;;;;;5050372;28;20213;-77
2022/09/18 07:40:02;;;;;;;1.95;0.70;;;;;;;;;;5053278;28;20044;-78
2022/09/18 07:42:28;;;;;;;3.28;0.90;;;;;;;;;;5054295;28;20016;-76
2022/09/18 07:44:54;;;;;;;5.45;0.90;;;;;;;;;;5049314;28;20035;-77
2022/09/18 07:47:21;;;;;;;4.25;1.10;;;;;;;;;;5053540;28;20111;-77
2022/09/18 07:49:47;;;;;;;5.45;0.82;;;;;;;;;;5048266;28;20493;-75
2022/09/18 07:52:13;;;;;;;2.35;0.88;;;;;;;;;;5050273;28;20021;-77
2022/09/18 07:54:39;;;;;;;3.85;0.75;;;;;;;;;;5051990;28;20051;-77
2022/09/18 07:57:05;;;;;;;4.80;1.25;;;;;;;;;;5051279;28;20059;-77
2022/09/18 07:59:31;;;;;;;6.43;1.00;;;;;;;;;;5050010;28;20034;-77
2022/09/18 08:01:58;;;;;;;3.80;1.00;;;;;;;;;;5057066;28;20039;-77
2022/09/18 08:04:24;;;;;;;5.53;0.75;;;;;;;;;;5059713;28;20546;-77
2022/09/18 08:06:51;;;;;;;4.20;0.98;;;;;;;;;;5055894;28;20500;-77
2022/09/18 08:09:17;;;;;;;3.55;0.80;;;;;;;;;;5061380;28;20024;-77
2022/09/18 08:11:43;;;;;;;4.55;1.27;;;;;;;;;;5056182;28;20110;-76
2022/09/18 08:14:09;;;;;;;2.90;0.65;;;;;;;;;;5054853;28;20046;-77
2022/09/18 08:16:35;;;;;;;4.05;0.90;;;;;;;;;;5058024;28;20433;-76
2022/09/18 08:19:02;;;;;;;2.97;0.80;;;;;;;;;;5061090;28;20031;-76
2022/09/18 08:21:31;;;;;;;6.95;1.15;;;;;;;;;;5058714;28;20435;-76
2022/09/18 08:23:57;;;;;;;4.90;0.90;;;;;;;;;;5057990;28;20438;-76
2022/09/18 08:26:23;;;;;;;4.38;1.00;;;;;;;;;;5048719;28;20035;-76
2022/09/18 08:28:50;;;;;;;2.55;0.98;;;;;;;;;;5052691;28;20039;-76
2022/09/18 08:31:16;;;;;;;5.10;0.70;;;;;;;;;;5045040;28;20486;-76
2022/09/18 08:33:42;;;;;;;4.32;0.93;;;;;;;;;;5052178;28;20021;-76
2022/09/18 08:36:08;;;;;;;3.15;1.05;;;;;;;;;;5047387;28;20415;-75
2022/09/18 08:38:36;;;;;;;5.03;1.10;;;;;;;;;;5051557;28;20017;-76
2022/09/18 08:41:02;;;;;;;3.38;0.90;;;;;;;;;;5053388;28;20101;-75
2022/09/18 08:43:33;;;;;;;5.53;1.00;;;;;;;;;;5060593;28;20031;-75
2022/09/18 08:45:59;;;;;;;1.98;0.80;;;;;;;;;;5047472;28;20024;-76
2022/09/18 08:48:37;;;;;;;3.45;0.90;;;;;;;;;;5048008;28;20017;-75
2022/09/18 08:51:11;;;;;;;2.00;1.00;;;;;;;;;;5049415;28;20509;-76
2022/09/18 08:53:42;;;;;;;2.85;1.02;;;;;;;;;;5048451;28;20028;-76
2022/09/18 08:56:29;;;;;;;2.78;0.98;;;;;;;;;;5049114;28;20024;-76
2022/09/18 08:58:55;;;;;;;2.70;0.60;;;;;;;;;;5051884;28;20028;-76
2022/09/18 09:01:27;;;;;;;4.53;0.80;;;;;;;;;;5048983;28;20794;-76
2022/09/18 09:04:19;;;;;;;2.70;0.93;;;;;;;;;;5050705;28;20028;-76
2022/09/18 09:06:57;;;;;;;5.60;1.17;;;;;;;;;;5050236;28;20058;-76
2022/09/18 09:09:36;;;;;;;4.97;0.70;;;;;;;;;;5051401;28;20025;-76
2022/09/18 09:12:14;;;;;;;3.80;1.23;;;;;;;;;;5047209;28;20013;-76
2022/09/18 09:14:50;;;;;;;5.15;1.33;;;;;;;;;;5052113;28;20753;-76
2022/09/18 09:17:20;;;;;;;3.20;0.98;;;;;;;;;;5048667;28;20159;-76
2022/09/18 09:19:53;;;;;;;5.68;1.00;;;;;;;;;;5051474;28;20035;-76
2022/09/18 09:22:22;;;;;;;3.55;1.13;;;;;;;;;;5048243;28;20021;-76
2022/09/18 09:24:48;;;;;;;9.20;1.13;;;;;;;;;;5049198;28;20028;-76
2022/09/18 09:27:14;;;;;;;3.55;0.90;;;;;;;;;;5055328;28;20195;-76
2022/09/18 09:29:42;;;;;;;2.72;0.88;;;;;;;;;;5048017;28;20385;-78
2022/09/18 09:32:14;;;;;;;5.15;1.08;;;;;;;;;;5051373;28;20036;-75
2022/09/18 09:34:44;;;;;;;26.05;5.60;;;;;;;;;;5047618;28;20029;-76
2022/09/18 09:37:16;;;;;;;3.13;0.90;;;;;;;;;;5050937;28;20083;-78
2022/09/18 09:39:49;;;;;;;4.57;1.10;;;;;;;;;;5049801;28;20021;-76
2022/09/18 09:42:26;;;;;;;6.15;1.20;;;;;;;;;;5051551;28;20036;-75
2022/09/18 09:44:55;;;;;;;9.65;1.45;;;;;;;;;;5055141;28;20096;-79
2022/09/18 09:47:26;;;;;;;5.68;1.33;;;;;;;;;;5057884;28;20457;-76
2022/09/18 09:50:11;;;;;;;4.78;0.90;;;;;;;;;;5055659;28;20126;-81
2022/09/18 09:52:39;;;;;;;1.92;0.80;;;;;;;;;;5055871;28;20029;-81
2022/09/18 09:55:17;;;;;;;2.90;0.85;;;;;;;;;;5054271;28;20025;-79
2022/09/18 09:57:43;;;;;;;3.72;1.10;;;;;;;;;;5056213;28;20869;-77
2022/09/18 10:00:17;;;;;;;23.73;3.13;;;;;;;;;;5057525;28;20036;-73
2022/09/18 10:02:54;;;;;;;5.03;0.90;;;;;;;;;;5059458;28;20021;-77
2022/09/18 10:05:21;;;;;;;4.75;0.93;;;;;;;;;;5067532;28;20554;-76
2022/09/18 10:07:55;;;;;;;6.45;1.27;;;;;;;;;;5060272;28;20108;-76
2022/09/18 10:10:28;;;;;;;3.45;0.90;;;;;;;;;;5054058;28;20404;-76
2022/09/18 10:13:00;;;;;;;3.50;0.85;;;;;;;;;;5057722;28;20388;-76
2022/09/18 10:15:33;;;;;;;5.45;1.00;;;;;;;;;;5049941;28;20029;-76
2022/09/18 10:18:01;;;;;;;4.57;1.00;;;;;;;;;;5058819;28;20017;-77
2022/09/18 10:20:30;;;;;;;4.32;0.90;;;;;;;;;;5053440;28;20111;-76
2022/09/18 10:22:59;;;;;;;2.97;0.90;;;;;;;;;;5057175;28;20024;-77
2022/09/18 10:25:38;;;;;;;3.28;1.00;;;;;;;;;;5052871;28;20027;-76
2022/09/18 10:28:04;;;;;;;2.67;0.93;;;;;;;;;;5048554;28;20020;-76
2022/09/18 10:30:31;;;;;;;3.88;0.90;;;;;;;;;;5050550;28;20646;-77
2022/09/18 10:32:58;;;;;;;4.30;1.10;;;;;;;;;;5046786;28;20573;-77
2022/09/18 10:35:30;;;;;;;1.85;0.82;;;;;;;;;;5049761;28;20185;-77
2022/09/18 10:37:58;;;;;;;3.40;0.80;;;;;;;;;;5048869;28;20590;-77
2022/09/18 10:40:30;;;;;;;1.77;0.75;;;;;;;;;;5048697;28;20367;-77
2022/09/18 10:42:56;;;;;;;2.00;0.85;;;;;;;;;;5047297;28;20700;-76
2022/09/18 10:45:36;;;;;;;3.28;0.75;;;;;;;;;;5047355;28;20493;-76
2022/09/18 10:48:07;;;;;;;2.10;0.82;;;;;;;;;;5047565;28;20028;-76
2022/09/18 10:50:33;;;;;;;8.40;0.80;;;;;;;;;;5050431;28;20201;-75
2022/09/18 10:53:22;;;;;;;3.20;0.82;;;;;;;;;;5051202;28;20029;-75
2022/09/18 10:55:49;;;;;;;4.88;1.42;;;;;;;;;;5054927;28;20043;-76
2022/09/18 10:58:16;;;;;;;1.70;0.68;;;;;;;;;;5050442;28;20611;-76
2022/09/18 11:00:52;;;;;;;3.75;0.90;;;;;;;;;;5055366;28;20036;-75
2022/09/18 11:03:20;;;;;;;3.25;1.00;;;;;;;;;;5052492;28;20017;-75
2022/09/18 11:05:48;;;;;;;2.97;1.02;;;;;;;;;;5054783;28;20507;-74
2022/09/18 11:08:16;;;;;;;2.63;0.75;;;;;;;;;;5052510;28;20044;-75
2022/09/18 11:10:49;;;;;;;3.58;1.13;;;;;;;;;;5053516;28;20021;-75
2022/09/18 11:13:21;;;;;;;4.50;0.80;;;;;;;;;;5052074;28;20009;-75
2022/09/18 11:15:51;;;;;;;2.30;0.77;;;;;;;;;;5052903;28;20473;-76
2022/09/18 11:18:18;;;;;;;2.20;0.73;;;;;;;;;;5051417;28;20021;-76
2022/09/18 11:20:46;;;;;;;3.47;0.70;;;;;;;;;;5052301;28;20037;-76
2022/09/18 11:23:22;;;;;;;3.20;0.80;;;;;;;;;;5055547;28;20012;-77
2022/09/18 11:25:48;;;;;;;3.35;1.08;;;;;;;;;;5050821;28;20025;-77
2022/09/18 11:28:21;;;;;;;2.70;0.63;;;;;;;;;;5053805;28;20031;-77
2022/09/18 11:30:54;;;;;;;2.58;0.90;;;;;;;;;;5051112;28;20021;-76
2022/09/18 11:33:24;;;;;;;2.20;1.17;;;;;;;;;;5053387;28;20028;-76
2022/09/18 11:35:54;;;;;;;2.97;0.98;;;;;;;;;;5054167;28;20038;-76
2022/09/18 11:38:21;;;;;;;2.90;0.70;;;;;;;;;;5051279;28;20021;-75
2022/09/18 11:40:50;;;;;;;4.57;0.98;;;;;;;;;;5053531;28;20105;-76
2022/09/18 11:43:31;;;;;;;4.15;1.00;;;;;;;;;;5050065;28;20036;-76
2022/09/18 11:46:17;;;;;;;1.10;0.60;;;;;;;;;;5066129;28;20036;-76
2022/09/18 11:48:49;;;;;;;2.92;0.70;;;;;;;;;;5051472;28;20024;-76
2022/09/18 11:51:25;;;;;;;2.40;0.82;;;;;;;;;;5054217;28;20029;-76
2022/09/18 11:53:54;;;;;;;3.50;0.80;;;;;;;;;;5053501;28;20033;-76
2022/09/18 11:56:33;;;;;;;2.17;0.70;;;;;;;;;;5049280;28;20028;-77
2022/09/18 11:59:26;;;;;;;3.72;0.90;;;;;;;;;;5053977;28;20023;-76
2022/09/18 12:01:55;;;;;;;4.03;0.90;;;;;;;;;;5047572;28;20382;-75
2022/09/18 12:04:26;;;;;;;4.20;0.93;;;;;;;;;;5052787;28;20464;-76
2022/09/18 12:06:54;;;;;;;2.30;0.80;;;;;;;;;;5049109;28;20731;-76
2022/09/18 12:09:43;;;;;;;3.08;0.60;;;;;;;;;;5054473;28;20495;-76
2022/09/18 12:12:11;;;;;;;2.92;0.77;;;;;;;;;;5050008;28;20021;-75
2022/09/18 12:15:00;;;;;;;2.53;0.68;;;;;;;;;;5053130;28;20037;-76
2022/09/18 12:17:39;;;;;;;3.88;0.73;;;;;;;;;;5051263;28;20477;-76
2022/09/18 12:20:07;;;;;;;4.18;1.08;;;;;;;;;;5051170;28;20021;-75
2022/09/18 12:22:39;;;;;;;4.25;1.10;;;;;;;;;;5051327;28;20056;-73
2022/09/18 12:25:16;;;;;;;3.42;0.80;;;;;;;;;;5052683;28;20027;-74
2022/09/18 12:27:53;;;;;;;4.55;1.08;;;;;;;;;;5050578;28;20037;-74
2022/09/18 12:30:21;;;;;;;1.58;0.60;;;;;;;;;;5057937;28;20027;-74
2022/09/18 12:33:05;;;;;;;2.05;0.50;;;;;;;;;;5054700;28;20049;-75
2022/09/18 12:35:44;;;;;;;1.88;0.80;;;;;;;;;;5053691;28;20048;-75
2022/09/18 12:38:22;;;;;;;1.58;0.93;;;;;;;;;;5058336;28;20020;-75
2022/09/18 12:41:00;;;;;;;2.95;0.60;;;;;;;;;;5043199;28;20560;-74
2022/09/18 12:43:35;;;;;;;2.28;0.82;;;;;;;;;;5053209;28;20028;-75
2022/09/18 12:46:07;;;;;;;1.90;0.65;;;;;;;;;;5044393;28;20021;-76
2022/09/18 12:48:45;;;;;;;2.42;0.63;;;;;;;;;;5055352;28;20016;-77
2022/09/18 12:51:49;;;;;;;4.53;0.60;;;;;;;;;;5065323;28;20060;-76
2022/09/18 12:54:22;;;;;;;2.53;0.90;;;;;;;;;;5018198;28;20021;-77
2022/09/18 12:56:54;;;;;;;5.07;0.65;;;;;;;;;;5030097;28;20028;-77
2022/09/18 12:59:32;;;;;;;4.95;0.88;;;;;;;;;;5041861;28;20044;-77
2022/09/18 13:02:02;;;;;;;2.22;0.60;;;;;;;;;;5053561;28;20029;-77
2022/09/18 13:04:49;;;;;;;2.78;0.57;;;;;;;;;;5067363;28;20171;-78
2022/09/18 13:07:20;;;;;;;2.35;0.60;;;;;;;;;;5050993;28;20127;-77
2022/09/18 13:10:01;;;;;;;3.03;0.70;;;;;;;;;;5055174;28;20021;-78
2022/09/18 13:12:52;;;;;;;2.30;0.68;;;;;;;;;;5053255;28;20069;-77
2022/09/18 13:15:22;;;;;;;1.77;0.60;;;;;;;;;;5050562;28;20013;-77
2022/09/18 13:17:54;;;;;;;0.75;0.38;;;;;;;;;;5056709;28;20032;-81
2022/09/18 13:20:27;;;;;;;5.45;0.88;;;;;;;;;;5053387;28;20433;-81
2022/09/18 13:22:54;;;;;;;3.50;0.65;;;;;;;;;;5052121;28;20027;-77
2022/09/18 13:25:20;;;;;;;1.45;0.68;;;;;;;;;;5059316;28;20039;-77
2022/09/18 13:27:46;;;;;;;0.90;0.60;;;;;;;;;;5046148;28;20055;-77
2022/09/18 13:30:24;;;;;;;1.73;0.70;;;;;;;;;;5050833;28;20027;-76
2022/09/18 13:32:51;;;;;;;2.13;0.68;;;;;;;;;;5046602;28;20028;-76
2022/09/18 13:35:18;;;;;;;2.47;1.00;;;;;;;;;;5049800;28;20028;-76
2022/09/18 13:37:46;;;;;;;1.90;0.65;;;;;;;;;;5050661;28;20026;-77
2022/09/18 13:40:33;;;;;;;2.55;0.88;;;;;;;;;;5049360;28;20044;-77
2022/09/18 13:43:02;;;;;;;2.28;0.70;;;;;;;;;;5049806;28;20036;-77
2022/09/18 13:45:37;;;;;;;2.55;1.17;;;;;;;;;;5051628;28;20108;-76
2022/09/18 13:48:14;;;;;;;4.53;0.88;;;;;;;;;;5053967;28;20073;-76
2022/09/18 13:50:55;;;;;;;2.40;0.90;;;;;;;;;;5056995;28;20349;-76
2022/09/18 13:53:43;;;;;;;1.25;0.55;;;;;;;;;;5058729;28;20029;-77
2022/09/18 13:56:13;;;;;;;3.50;0.65;;;;;;;;;;5058513;28;20016;-76
2022/09/18 13:58:39;;;;;;;1.80;0.60;;;;;;;;;;5055473;28;20104;-77
2022/09/18 14:01:09;;;;;;;2.53;0.88;;;;;;;;;;5058294;28;20056;-76
2022/09/18 14:03:39;;;;;;;2.60;0.73;;;;;;;;;;5053843;28;20013;-78
2022/09/18 14:06:24;;;;;;;2.78;0.57;;;;;;;;;;5057263;28;20028;-75
2022/09/18 14:08:50;;;;;;;1.65;0.95;;;;;;;;;;5055213;28;20036;-75
2022/09/18 14:11:23;;;;;;;3.03;0.68;;;;;;;;;;5057820;28;20021;-76
2022/09/18 14:13:54;;;;;;;3.28;0.80;;;;;;;;;;5052158;28;20548;-76
2022/09/18 14:16:21;;;;;;;4.25;1.20;;;;;;;;;;5059798;28;20445;-76
2022/09/18 14:18:47;;;;;;;2.50;1.08;;;;;;;;;;5055232;28;20607;-76
2022/09/18 14:21:13;;;;;;;3.25;0.93;;;;;;;;;;5055384;28;20377;-76
2022/09/18 14:23:45;;;;;;;0.98;0.57;;;;;;;;;;5057532;28;20017;-76
2022/09/18 14:26:30;;;;;;;2.35;0.98;;;;;;;;;;5046738;28;20029;-76
2022/09/18 14:29:09;;;;;;;1.83;0.70;;;;;;;;;;5055087;28;20543;-76
2022/09/18 14:31:44;;;;;;;5.55;0.88;;;;;;;;;;5048523;28;20493;-76
2022/09/18 14:34:28;;;;;;;3.35;0.60;;;;;;;;;;5048286;28;20060;-76
2022/09/18 14:36:58;;;;;;;4.22;0.90;;;;;;;;;;5051687;28;20094;-75
2022/09/18 14:39:29;;;;;;;4.00;0.75;;;;;;;;;;5048505;28;20027;-76
2022/09/18 14:41:57;;;;;;;4.22;1.55;;;;;;;;;;5049979;28;20749;-76
2022/09/18 14:44:23;;;;;;;5.35;0.75;;;;;;;;;;5046770;28;20146;-76
2022/09/18 14:46:56;;;;;;;6.10;0.88;;;;;;;;;;5049253;28;20021;-75
2022/09/18 14:49:25;;;;;;;6.43;0.82;;;;;;;;;;5051363;28;20049;-76
2022/09/18 14:51:52;;;;;;;4.00;0.70;;;;;;;;;;5049734;28;20024;-76
2022/09/18 14:54:25;;;;;;;2.95;0.60;;;;;;;;;;5055827;28;20024;-76
2022/09/18 14:56:53;;;;;;;2.85;0.65;;;;;;;;;;5051251;28;20560;-76